Time;durP1;ratioP1;P1;durP2;ratioP2;P2;SDS_P1;SDS_P2;PMS_P1;PMS_P2;Temp;Humidity;BMP_temperature;BMP_pressure;BME280_temperature;BME280_humidity;BME280_pressure;Samples;Min_cycle;Max_cycle;Signal;HPM_P1;HPM_P2
2024/01/07 00:01:03;;;;;;;48.25;16.40;;;;;;;6.16;100.00;99432.28;6090877;23;20022;-84
2024/01/07 00:03:30;;;;;;;47.08;17.58;;;;;;;6.16;100.00;99434.09;6079768;23;20022;-84
2024/01/07 00:05:57;;;;;;;37.22;14.50;;;;;;;6.17;100.00;99423.41;6044765;23;20030;-85
2024/01/07 00:08:24;;;;;;;30.38;12.07;;;;;;;6.13;100.00;99422.00;6067874;23;20311;-85
2024/01/07 00:10:51;;;;;;;34.10;13.02;;;;;;;6.15;100.00;99427.97;6079891;23;20017;-85
2024/01/07 00:13:20;;;;;;;40.88;13.25;;;;;;;6.14;100.00;99421.03;6091686;23;20026;-85
2024/01/07 00:15:47;;;;;;;31.23;11.23;;;;;;;6.15;100.00;99429.75;6115891;23;20018;-84
2024/01/07 00:18:14;;;;;;;38.15;13.13;;;;;;;6.15;99.79;99429.75;6091162;23;20029;-85
2024/01/07 00:20:41;;;;;;;32.70;12.45;;;;;;;6.14;99.73;99425.47;6068698;23;20021;-85
2024/01/07 00:23:13;;;;;;;44.58;13.93;;;;;;;6.12;99.69;99433.47;6115672;23;20033;-84
2024/01/07 00:25:40;;;;;;;32.17;12.02;;;;;;;6.15;99.53;99432.41;6091729;23;20093;-85
2024/01/07 00:28:07;;;;;;;30.75;12.25;;;;;;;6.14;99.43;99428.09;6091034;23;20026;-85
2024/01/07 00:30:34;;;;;;;33.42;11.88;;;;;;;6.17;99.29;99433.13;6068126;23;20028;-85
2024/01/07 00:33:01;;;;;;;41.78;14.38;;;;;;;6.17;99.26;99439.22;6092303;23;20366;-85
2024/01/07 00:35:28;;;;;;;37.95;12.88;;;;;;;6.17;99.47;99430.50;6068275;23;20512;-84
2024/01/07 00:37:56;;;;;;;36.80;13.85;;;;;;;6.16;99.31;99445.47;6045314;23;20518;-84
2024/01/07 00:40:23;;;;;;;41.95;13.35;;;;;;;6.14;98.70;99431.56;6067548;23;20034;-85
2024/01/07 00:42:51;;;;;;;44.20;13.90;;;;;;;6.04;98.06;99441.13;6115304;23;20050;-84
2024/01/07 00:45:18;;;;;;;46.88;14.98;;;;;;;6.09;98.48;99444.25;6118294;23;20018;-85
2024/01/07 00:47:46;;;;;;;44.15;14.68;;;;;;;6.08;98.68;99438.16;6069824;23;20311;-85
2024/01/07 00:50:13;;;;;;;44.47;14.80;;;;;;;6.11;98.89;99437.06;6067855;23;20026;-84
2024/01/07 00:52:43;;;;;;;44.20;13.48;;;;;;;6.14;98.97;99449.19;6040130;23;20035;-85
2024/01/07 00:55:09;;;;;;;44.13;15.13;;;;;;;6.10;98.70;99438.00;6081632;23;20022;-84
2024/01/07 00:57:36;;;;;;;40.67;13.68;;;;;;;6.03;98.33;99435.03;6091793;23;20349;-84
2024/01/07 01:00:07;;;;;;;39.85;13.80;;;;;;;6.03;97.92;99440.28;6091165;23;20097;-84
2024/01/07 01:02:35;;;;;;;44.72;15.40;;;;;;;5.98;97.98;99444.22;6091752;23;20092;-85
2024/01/07 01:05:03;;;;;;;43.70;14.38;;;;;;;5.97;97.96;99443.38;6044304;23;20061;-85
2024/01/07 01:07:30;;;;;;;42.08;13.68;;;;;;;6.00;98.10;99443.13;6091593;23;20025;-85
2024/01/07 01:09:58;;;;;;;40.85;13.02;;;;;;;5.98;97.78;99441.56;6091835;23;20525;-84
2024/01/07 01:12:24;;;;;;;40.88;13.05;;;;;;;5.92;97.92;99442.84;6079778;23;20022;-84
2024/01/07 01:14:51;;;;;;;50.65;15.25;;;;;;;5.92;97.72;99450.75;6091811;23;20028;-85
2024/01/07 01:17:18;;;;;;;42.60;14.43;;;;;;;5.93;97.99;99454.22;6091671;23;20089;-85
2024/01/07 01:19:45;;;;;;;45.08;14.80;;;;;;;5.93;97.87;99455.09;6092020;23;20076;-85
2024/01/07 01:22:12;;;;;;;48.47;15.65;;;;;;;5.91;98.47;99458.81;6080353;23;20025;-85
2024/01/07 01:24:39;;;;;;;45.53;15.55;;;;;;;5.85;98.32;99463.56;6091400;23;20026;-84
2024/01/07 01:27:06;;;;;;;48.10;13.93;;;;;;;5.78;98.22;99459.72;6091418;23;24712;-85
2024/01/07 01:29:33;;;;;;;48.72;15.05;;;;;;;5.82;98.37;99463.78;6091150;23;20022;-85
2024/01/07 01:32:00;;;;;;;48.20;14.80;;;;;;;5.79;98.56;99461.38;6091270;23;20328;-85
2024/01/07 01:34:26;;;;;;;47.90;14.80;;;;;;;5.86;98.89;99467.88;6091022;23;20026;-84
2024/01/07 01:36:53;;;;;;;48.78;14.73;;;;;;;5.81;98.92;99461.28;6067472;23;20050;-85
2024/01/07 01:39:20;;;;;;;49.58;15.73;;;;;;;5.80;99.15;99454.31;6114827;23;20435;-85
2024/01/07 01:41:47;;;;;;;47.28;14.57;;;;;;;5.74;99.86;99460.88;6092184;23;20504;-85
2024/01/07 01:44:14;;;;;;;45.80;14.40;;;;;;;5.81;99.63;99466.53;6090988;23;20014;-84
2024/01/07 01:46:41;;;;;;;47.80;16.00;;;;;;;5.70;100.00;99461.22;6090673;23;20021;-84
2024/01/07 01:49:08;;;;;;;44.83;14.80;;;;;;;5.73;100.00;99451.31;6091031;23;20025;-84
2024/01/07 01:51:35;;;;;;;45.47;14.40;;;;;;;5.67;100.00;99457.03;6067344;23;20017;-85
2024/01/07 01:54:03;;;;;;;51.38;15.77;;;;;;;5.66;100.00;99464.09;6079637;23;20022;-85
2024/01/07 01:56:29;;;;;;;43.65;15.23;;;;;;;5.66;100.00;99455.34;6090850;23;20041;-84
2024/01/07 01:58:56;;;;;;;45.95;15.48;;;;;;;5.66;100.00;99461.44;6055793;23;20033;-84
2024/01/07 02:01:24;;;;;;;48.92;17.30;;;;;;;5.60;100.00;99469.81;6090426;23;20034;-84
2024/01/07 02:03:53;;;;;;;53.08;15.88;;;;;;;5.58;100.00;99463.00;6066670;23;20014;-84
2024/01/07 02:06:21;;;;;;;48.38;14.63;;;;;;;5.56;100.00;99462.25;6066967;23;20017;-84
2024/01/07 02:08:48;;;;;;;51.33;13.82;;;;;;;5.56;100.00;99468.34;6091245;23;20014;-84
2024/01/07 02:11:19;;;;;;;45.90;14.25;;;;;;;5.60;100.00;99467.19;6042905;23;20335;-86
2024/01/07 02:13:46;;;;;;;44.42;13.40;;;;;;;5.62;100.00;99462.66;6079419;23;20384;-85
2024/01/07 02:16:13;;;;;;;30.52;11.38;;;;;;;5.64;100.00;99463.34;6116075;23;20022;-84
2024/01/07 02:18:43;;;;;;;38.83;12.30;;;;;;;5.67;99.63;99462.28;6090672;23;20026;-84
2024/01/07 02:21:14;;;;;;;32.65;12.23;;;;;;;5.78;100.00;99467.63;6054968;23;20403;-84
2024/01/07 02:23:41;;;;;;;34.65;11.35;;;;;;;5.65;99.41;99467.69;6090457;23;20092;-84
2024/01/07 02:26:08;;;;;;;30.42;10.35;;;;;;;5.71;99.55;99468.19;6090673;23;20048;-84
2024/01/07 02:28:35;;;;;;;34.08;10.23;;;;;;;5.78;99.45;99472.88;6067129;23;20101;-84
2024/01/07 02:31:02;;;;;;;33.20;10.98;;;;;;;5.75;99.22;99459.09;6090660;23;20034;-84
2024/01/07 02:33:30;;;;;;;37.80;12.13;;;;;;;5.83;99.42;99475.19;6115202;23;20034;-84
2024/01/07 02:35:57;;;;;;;29.02;10.93;;;;;;;5.79;99.09;99469.28;6091913;23;20022;-84
2024/01/07 02:38:24;;;;;;;29.50;10.55;;;;;;;5.84;98.99;99475.06;6090460;23;20439;-84
2024/01/07 02:40:51;;;;;;;33.90;10.93;;;;;;;5.84;98.99;99476.84;6091171;23;20085;-86
2024/01/07 02:43:18;;;;;;;27.02;9.68;;;;;;;5.81;98.91;99470.03;6091983;23;20341;-84
2024/01/07 02:45:47;;;;;;;33.40;10.70;;;;;;;5.86;99.35;99478.41;6068013;23;20026;-84
2024/01/07 02:48:14;;;;;;;30.77;11.15;;;;;;;5.87;99.38;99472.19;6114514;23;20085;-84
2024/01/07 02:50:41;;;;;;;32.65;11.13;;;;;;;5.86;99.47;99467.88;6091148;23;20021;-84
2024/01/07 02:53:09;;;;;;;30.27;9.60;;;;;;;5.88;99.79;99470.41;6114863;23;20034;-84
2024/01/07 02:55:36;;;;;;;33.50;10.27;;;;;;;5.89;99.91;99472.06;6091080;23;20045;-84
2024/01/07 02:58:03;;;;;;;28.30;9.02;;;;;;;5.90;100.00;99473.75;6091083;23;20879;-84
2024/01/07 03:00:30;;;;;;;26.23;8.38;;;;;;;5.90;99.85;99470.28;6067388;23;20401;-84
2024/01/07 03:02:57;;;;;;;23.73;9.32;;;;;;;5.90;99.91;99472.91;6090507;23;20030;-84
2024/01/07 03:05:24;;;;;;;22.77;7.85;;;;;;;5.91;99.45;99471.97;6105348;23;20438;-84
2024/01/07 03:07:51;;;;;;;23.38;7.93;;;;;;;5.92;99.34;99477.13;6115949;23;20022;-84
2024/01/07 03:10:18;;;;;;;26.15;8.40;;;;;;;5.92;99.37;99477.13;6090307;23;20097;-84
2024/01/07 03:12:45;;;;;;;24.45;8.32;;;;;;;5.92;99.10;99477.13;6090192;23;20018;-84
2024/01/07 03:15:11;;;;;;;18.90;6.68;;;;;;;5.92;98.86;99482.38;6086673;23;20320;-84
2024/01/07 03:17:39;;;;;;;17.88;6.20;;;;;;;5.91;98.21;99485.16;6087650;23;20085;-84
2024/01/07 03:20:06;;;;;;;20.77;6.88;;;;;;;5.91;97.88;99478.09;6045903;23;20056;-84
2024/01/07 03:22:33;;;;;;;20.88;7.72;;;;;;;5.92;98.28;99485.03;6114741;23;20029;-84
2024/01/07 03:25:00;;;;;;;21.05;7.80;;;;;;;5.90;98.46;99484.28;6069059;23;20841;-84
2024/01/07 03:27:26;;;;;;;19.67;6.75;;;;;;;5.90;98.29;99488.72;6092687;23;20029;-85
2024/01/07 03:29:53;;;;;;;18.30;6.95;;;;;;;5.87;98.35;99485.34;6092180;23;20034;-85
2024/01/07 03:32:20;;;;;;;22.35;7.63;;;;;;;5.87;98.49;99488.00;6093041;23;20588;-85
2024/01/07 03:34:49;;;;;;;20.23;6.80;;;;;;;5.88;98.08;99494.13;6092715;23;20030;-85
2024/01/07 03:37:17;;;;;;;21.75;7.13;;;;;;;5.86;98.05;99494.22;6066886;23;20026;-85
2024/01/07 03:39:44;;;;;;;19.48;7.55;;;;;;;5.90;98.33;99494.00;6091750;23;20093;-85
2024/01/07 03:42:11;;;;;;;22.15;7.68;;;;;;;5.89;98.44;99490.53;6092811;23;20022;-85
2024/01/07 03:44:39;;;;;;;18.60;6.93;;;;;;;5.87;98.48;99490.63;6068444;23;20030;-85
2024/01/07 03:47:06;;;;;;;17.00;6.45;;;;;;;5.88;98.61;99494.13;6091600;23;20030;-84
2024/01/07 03:49:33;;;;;;;16.55;5.88;;;;;;;5.83;99.08;99496.25;6091905;23;20025;-85
2024/01/07 03:51:59;;;;;;;19.73;6.97;;;;;;;5.86;99.17;99496.88;6068233;23;20026;-85
2024/01/07 03:54:26;;;;;;;19.45;6.90;;;;;;;5.85;98.26;99495.19;6068247;23;20032;-85
2024/01/07 03:56:53;;;;;;;20.33;7.38;;;;;;;5.85;97.34;99499.59;6080074;23;20449;-85
2024/01/07 03:59:22;;;;;;;20.38;7.55;;;;;;;5.89;97.54;99501.06;6068315;23;20100;-85
2024/01/07 04:01:49;;;;;;;16.48;6.85;;;;;;;5.91;97.45;99506.22;6091925;23;20033;-85
2024/01/07 04:04:16;;;;;;;20.92;6.60;;;;;;;5.86;97.92;99499.50;6066517;23;20014;-85
2024/01/07 04:06:43;;;;;;;19.20;6.45;;;;;;;5.86;98.03;99507.41;6091336;23;20379;-85
2024/01/07 04:09:09;;;;;;;19.92;7.55;;;;;;;5.86;98.90;99503.94;6091627;23;20025;-85
2024/01/07 04:11:42;;;;;;;14.85;6.18;;;;;;;5.83;99.20;99507.63;6091859;23;20018;-85
2024/01/07 04:14:09;;;;;;;13.93;6.35;;;;;;;5.82;99.54;99515.66;6101226;23;20212;-84
2024/01/07 04:16:36;;;;;;;18.35;7.65;;;;;;;5.82;99.34;99516.47;6072863;23;20346;-84
2024/01/07 04:19:03;;;;;;;15.93;6.85;;;;;;;5.80;99.66;99517.53;6091579;23;20026;-84
2024/01/07 04:21:30;;;;;;;17.67;6.78;;;;;;;5.77;100.00;99513.34;6043510;23;20452;-84
2024/01/07 04:23:57;;;;;;;18.70;7.07;;;;;;;5.71;100.00;99518.25;6068277;23;20049;-85
2024/01/07 04:26:24;;;;;;;19.73;6.90;;;;;;;5.73;100.00;99525.06;6067086;23;20030;-85
2024/01/07 04:28:51;;;;;;;22.42;7.95;;;;;;;5.74;100.00;99526.75;6092414;23;20026;-86
2024/01/07 04:31:18;;;;;;;16.58;6.20;;;;;;;5.69;100.00;99530.69;6091629;23;20032;-84
2024/01/07 04:33:45;;;;;;;15.45;6.40;;;;;;;5.70;100.00;99525.31;6092440;23;20032;-85
2024/01/07 04:36:12;;;;;;;21.67;7.22;;;;;;;5.72;100.00;99533.91;6116506;23;20021;-85
2024/01/07 04:38:39;;;;;;;15.77;6.55;;;;;;;5.72;100.00;99539.19;6115560;23;20040;-85
2024/01/07 04:41:07;;;;;;;18.65;7.43;;;;;;;5.71;100.00;99534.03;6067937;23;20037;-84
2024/01/07 04:43:36;;;;;;;17.60;6.75;;;;;;;5.65;100.00;99537.97;6068725;23;20517;-84
2024/01/07 04:46:06;;;;;;;19.20;8.15;;;;;;;5.71;100.00;99536.69;6115483;23;20484;-85
2024/01/07 04:48:33;;;;;;;16.77;6.97;;;;;;;5.75;100.00;99544.25;6116587;23;20022;-84
2024/01/07 04:51:04;;;;;;;15.90;6.93;;;;;;;5.75;100.00;99538.13;6092758;23;20443;-85
2024/01/07 04:53:31;;;;;;;18.75;5.97;;;;;;;5.74;100.00;99539.91;6091512;23;20077;-85
2024/01/07 04:55:57;;;;;;;16.15;6.50;;;;;;;5.77;100.00;99544.13;6091218;23;20022;-84
2024/01/07 04:58:24;;;;;;;21.85;7.13;;;;;;;5.77;100.00;99541.50;6065341;23;20017;-85
2024/01/07 05:00:51;;;;;;;19.48;7.28;;;;;;;5.77;100.00;99547.59;6091361;23;20081;-85
2024/01/07 05:03:18;;;;;;;20.48;7.13;;;;;;;5.77;100.00;99542.31;6090931;23;20431;-84
2024/01/07 05:05:47;;;;;;;20.77;7.13;;;;;;;5.78;100.00;99546.66;6091779;23;20072;-84
2024/01/07 05:08:14;;;;;;;20.35;7.43;;;;;;;5.77;100.00;99550.22;6091334;23;20026;-84
2024/01/07 05:10:41;;;;;;;21.10;9.00;;;;;;;5.75;100.00;99552.16;6116311;23;20037;-85
2024/01/07 05:13:07;;;;;;;22.55;6.95;;;;;;;5.79;100.00;99558.88;6067757;23;20033;-85
2024/01/07 05:15:35;;;;;;;20.25;8.40;;;;;;;5.74;100.00;99557.53;6090738;23;20029;-85
2024/01/07 05:18:08;;;;;;;26.98;8.90;;;;;;;5.74;100.00;99561.00;6069002;23;20026;-85
2024/01/07 05:20:35;;;;;;;26.77;9.88;;;;;;;5.76;100.00;99564.38;6091022;23;20113;-84
2024/01/07 05:23:02;;;;;;;33.17;11.13;;;;;;;5.76;100.00;99561.72;6115100;23;20394;-84
2024/01/07 05:25:30;;;;;;;30.25;10.77;;;;;;;5.75;100.00;99570.59;6091524;23;20018;-84
2024/01/07 05:27:57;;;;;;;32.35;9.43;;;;;;;5.73;100.00;99566.41;6076540;23;20454;-84
2024/01/07 05:30:24;;;;;;;30.30;10.15;;;;;;;5.78;100.00;99572.16;6043433;23;20020;-85
2024/01/07 05:32:51;;;;;;;30.70;10.57;;;;;;;5.78;100.00;99573.00;6115865;23;20049;-85
2024/01/07 05:35:18;;;;;;;37.70;11.65;;;;;;;5.78;100.00;99574.81;6067222;23;20018;-84
2024/01/07 05:37:45;;;;;;;31.02;11.23;;;;;;;5.79;100.00;99577.31;6076463;23;20026;-86
2024/01/07 05:40:12;;;;;;;38.35;11.38;;;;;;;5.81;100.00;99582.47;6048393;23;20013;-85
2024/01/07 05:42:39;;;;;;;31.73;10.63;;;;;;;5.78;100.00;99575.63;6090897;23;20025;-84
2024/01/07 05:45:06;;;;;;;31.33;12.38;;;;;;;5.75;100.00;99578.50;6090848;23;20030;-85
2024/01/07 05:47:33;;;;;;;30.20;10.80;;;;;;;5.76;100.00;99595.16;6043069;23;20076;-84
2024/01/07 05:50:00;;;;;;;31.27;10.25;;;;;;;5.77;100.00;99584.47;6066792;23;20026;-85
2024/01/07 05:52:27;;;;;;;32.53;10.85;;;;;;;5.76;100.00;99593.34;6090773;23;20112;-85
2024/01/07 05:54:54;;;;;;;30.67;11.27;;;;;;;5.80;100.00;99599.22;6113956;23;20026;-85
2024/01/07 05:57:21;;;;;;;29.15;11.38;;;;;;;5.79;100.00;99595.75;6067183;23;20030;-85
2024/01/07 05:59:50;;;;;;;38.15;13.10;;;;;;;5.77;100.00;99595.00;6067342;23;20054;-85
2024/01/07 06:02:22;;;;;;;35.22;11.10;;;;;;;5.77;100.00;99608.19;6113867;23;20030;-85
2024/01/07 06:04:49;;;;;;;35.15;12.65;;;;;;;5.79;100.00;99608.94;6067107;23;20045;-84
2024/01/07 06:07:16;;;;;;;35.70;12.23;;;;;;;5.79;100.00;99605.47;6067465;23;20018;-85
2024/01/07 06:09:43;;;;;;;33.45;12.20;;;;;;;5.83;100.00;99607.75;6115809;23;20093;-85
2024/01/07 06:12:10;;;;;;;29.58;10.68;;;;;;;5.85;100.00;99611.13;6090152;23;20026;-84
2024/01/07 06:14:37;;;;;;;34.63;10.93;;;;;;;5.88;100.00;99607.44;6067228;23;20069;-85
2024/01/07 06:17:04;;;;;;;26.48;10.50;;;;;;;5.89;100.00;99619.66;6067005;23;20022;-85
2024/01/07 06:19:31;;;;;;;29.00;11.02;;;;;;;5.90;100.00;99617.84;6067271;23;20490;-85
2024/01/07 06:21:57;;;;;;;22.65;10.38;;;;;;;5.89;99.30;99624.91;6114974;23;20407;-85
2024/01/07 06:24:24;;;;;;;26.08;10.73;;;;;;;5.83;97.66;99622.75;6091803;23;20117;-85
2024/01/07 06:26:51;;;;;;;22.27;9.73;;;;;;;5.79;95.98;99626.53;6090985;23;20025;-84
2024/01/07 06:29:18;;;;;;;28.88;10.35;;;;;;;5.81;95.33;99640.44;6089991;23;20028;-84
2024/01/07 06:31:45;;;;;;;24.48;9.55;;;;;;;5.68;94.01;99647.56;6091009;23;20022;-84
2024/01/07 06:34:13;;;;;;;21.45;9.45;;;;;;;5.71;92.33;99647.31;6091367;23;20045;-84
2024/01/07 06:36:41;;;;;;;24.70;9.40;;;;;;;5.62;90.42;99649.66;6090286;23;20049;-84
2024/01/07 06:39:08;;;;;;;19.58;7.80;;;;;;;5.54;84.34;99662.50;6089646;23;20032;-85
2024/01/07 06:41:35;;;;;;;24.67;9.02;;;;;;;5.41;85.23;99666.97;6090509;23;20093;-85
2024/01/07 06:44:03;;;;;;;16.92;7.22;;;;;;;5.49;86.28;99666.44;6090429;23;20432;-85
2024/01/07 06:46:30;;;;;;;18.83;7.30;;;;;;;5.46;85.93;99671.91;6114253;23;20025;-84
2024/01/07 06:48:56;;;;;;;19.77;8.50;;;;;;;5.47;86.40;99674.47;6066340;23;20465;-86
2024/01/07 06:51:23;;;;;;;21.38;9.20;;;;;;;5.43;86.46;99673.81;6084672;23;20034;-85
2024/01/07 06:53:50;;;;;;;17.13;8.07;;;;;;;5.41;85.44;99680.97;6080258;23;20018;-85
2024/01/07 06:56:17;;;;;;;22.23;8.15;;;;;;;5.44;84.81;99685.19;6090274;23;20040;-85
2024/01/07 06:58:44;;;;;;;19.70;7.47;;;;;;;5.39;83.71;99680.25;6114504;23;20402;-85
2024/01/07 07:01:11;;;;;;;21.33;8.60;;;;;;;5.41;84.28;99688.88;6090486;23;20080;-85
2024/01/07 07:03:40;;;;;;;21.27;8.32;;;;;;;5.39;82.87;99689.91;6115061;23;20436;-85
2024/01/07 07:06:07;;;;;;;19.75;7.85;;;;;;;5.31;82.55;99685.19;6113959;23;20034;-86
2024/01/07 07:08:34;;;;;;;15.60;7.43;;;;;;;5.34;83.46;99692.03;6113856;23;20028;-85
2024/01/07 07:11:01;;;;;;;21.17;8.52;;;;;;;5.41;84.42;99690.66;6090932;23;20020;-85
2024/01/07 07:13:27;;;;;;;15.90;7.78;;;;;;;5.43;84.85;99694.03;6066027;23;20033;-85
2024/01/07 07:15:54;;;;;;;20.45;7.93;;;;;;;5.26;81.60;99694.34;6043626;23;20101;-86
2024/01/07 07:18:21;;;;;;;20.95;7.07;;;;;;;5.34;82.96;99702.56;6043861;23;20311;-86
2024/01/07 07:20:48;;;;;;;17.77;7.97;;;;;;;5.39;82.62;99700.44;6067872;23;20077;-85
2024/01/07 07:23:15;;;;;;;18.33;8.18;;;;;;;5.36;83.35;99698.03;6115538;23;20021;-85
2024/01/07 07:25:42;;;;;;;15.43;7.60;;;;;;;5.31;82.67;99710.69;6115700;23;20502;-85
2024/01/07 07:28:09;;;;;;;22.45;7.85;;;;;;;5.36;82.61;99703.31;6090462;23;20029;-85
2024/01/07 07:30:36;;;;;;;17.58;8.52;;;;;;;5.31;82.07;99714.16;6101895;23;20072;-85
2024/01/07 07:33:03;;;;;;;16.88;7.72;;;;;;;5.39;82.78;99716.25;6067886;23;20026;-86
2024/01/07 07:35:30;;;;;;;18.33;7.72;;;;;;;5.36;82.73;99708.56;6091342;23;20034;-85
2024/01/07 07:37:56;;;;;;;20.65;7.97;;;;;;;5.44;83.48;99725.53;6091693;23;20026;-86
2024/01/07 07:40:26;;;;;;;15.73;7.90;;;;;;;5.33;81.59;99738.59;6114753;23;20026;-86
2024/01/07 07:42:52;;;;;;;20.70;7.60;;;;;;;5.32;82.15;99729.00;6090433;23;20018;-86
2024/01/07 07:45:19;;;;;;;17.42;7.20;;;;;;;5.32;81.92;99741.34;6089925;23;20030;-86
2024/01/07 07:47:46;;;;;;;15.95;7.45;;;;;;;5.37;81.62;99740.06;6090713;23;20073;-86
2024/01/07 07:50:13;;;;;;;21.75;7.55;;;;;;;5.34;82.37;99740.28;6061231;23;20026;-86
2024/01/07 07:52:46;;;;;;;15.32;7.45;;;;;;;5.35;83.15;99738.50;6065491;23;20022;-85
2024/01/07 07:55:12;;;;;;;16.42;7.88;;;;;;;5.39;81.78;99746.09;6062148;23;20098;-86
2024/01/07 07:57:39;;;;;;;18.70;9.18;;;;;;;5.39;82.12;99746.09;6062556;23;20030;-86
2024/01/07 08:00:07;;;;;;;19.88;7.57;;;;;;;5.34;81.17;99756.09;6090179;23;20034;-86
2024/01/07 08:02:34;;;;;;;20.13;8.48;;;;;;;5.30;82.48;99749.34;6091852;23;20030;-86
2024/01/07 08:05:01;;;;;;;21.90;9.60;;;;;;;5.35;83.40;99747.22;6117540;23;20018;-86
2024/01/07 08:07:28;;;;;;;23.35;9.43;;;;;;;5.35;84.34;99752.50;6092414;23;20048;-86
2024/01/07 08:09:56;;;;;;;31.02;14.93;;;;;;;5.25;83.64;99754.06;6068726;23;20029;-86
2024/01/07 08:12:24;;;;;;;24.00;10.88;;;;;;;5.13;82.90;99766.25;6091819;23;20100;-86
2024/01/07 08:14:51;;;;;;;23.38;9.00;;;;;;;5.15;82.94;99761.75;6092668;23;20041;-86
2024/01/07 08:17:17;;;;;;;23.05;9.07;;;;;;;5.10;82.26;99773.53;6091271;23;20022;-86
2024/01/07 08:19:44;;;;;;;20.30;9.00;;;;;;;5.10;82.76;99777.00;6092022;23;20018;-85
2024/01/07 08:22:12;;;;;;;17.17;8.05;;;;;;;4.95;82.08;99770.94;6115631;23;20026;-85
2024/01/07 08:24:39;;;;;;;17.40;8.77;;;;;;;4.98;81.93;99778.63;6116340;23;20022;-86
2024/01/07 08:27:06;;;;;;;22.23;9.60;;;;;;;5.07;83.11;99784.25;6069224;23;20358;-87
2024/01/07 08:29:33;;;;;;;25.85;8.88;;;;;;;5.06;82.79;99777.28;6079286;23;20113;-86
2024/01/07 08:31:59;;;;;;;17.65;8.73;;;;;;;5.13;83.04;99781.22;6092679;23;20159;-86
2024/01/07 08:34:26;;;;;;;20.70;8.65;;;;;;;5.08;82.22;99792.03;6092295;23;20068;-87
2024/01/07 08:36:53;;;;;;;21.55;9.60;;;;;;;4.99;81.64;99796.13;6023761;23;20502;-85
2024/01/07 08:39:20;;;;;;;20.45;7.60;;;;;;;5.07;82.36;99795.63;6104025;23;20025;-87
2024/01/07 08:41:47;;;;;;;22.77;8.18;;;;;;;5.04;82.55;99801.09;6092445;23;20032;-86
2024/01/07 08:44:14;;;;;;;19.65;8.52;;;;;;;5.08;82.53;99799.94;6067923;23;20088;-86
2024/01/07 08:46:41;;;;;;;18.52;8.45;;;;;;;4.83;80.86;99813.00;6062666;23;20098;-87
2024/01/07 08:49:08;;;;;;;21.17;9.05;;;;;;;4.97;81.03;99818.22;6086598;23;20081;-86
2024/01/07 08:51:35;;;;;;;21.10;8.27;;;;;;;5.01;81.19;99806.53;6068054;23;20022;-86
2024/01/07 08:54:02;;;;;;;18.00;8.32;;;;;;;5.00;81.73;99813.59;6067777;23;20431;-87
2024/01/07 08:56:29;;;;;;;18.05;7.82;;;;;;;4.93;82.43;99820.19;6116455;23;20018;-86
2024/01/07 08:58:56;;;;;;;17.73;7.72;;;;;;;4.79;80.58;99836.06;6091645;23;20045;-86
2024/01/07 09:01:24;;;;;;;16.00;6.95;;;;;;;4.94;80.84;99834.22;6091566;23;20060;-86
2024/01/07 09:03:51;;;;;;;19.58;8.77;;;;;;;4.88;80.84;99827.56;6067456;23;20026;-86
2024/01/07 09:06:18;;;;;;;16.25;7.40;;;;;;;4.86;80.96;99829.47;6091031;23;20084;-86
2024/01/07 09:08:45;;;;;;;18.85;7.05;;;;;;;4.84;81.05;99828.72;6117951;23;20095;-86
2024/01/07 09:11:13;;;;;;;23.95;9.82;;;;;;;4.82;80.16;99842.91;6115497;23;20034;-86
2024/01/07 09:13:39;;;;;;;17.83;7.47;;;;;;;4.68;80.57;99831.50;6067165;23;20022;-86
2024/01/07 09:16:11;;;;;;;20.35;7.65;;;;;;;4.78;80.63;99845.75;6091188;23;20022;-85
2024/01/07 09:18:38;;;;;;;17.20;7.22;;;;;;;4.60;80.12;99852.16;6067009;23;20045;-86
2024/01/07 09:21:06;;;;;;;16.58;6.78;;;;;;;4.59;78.90;99844.38;6031280;23;20020;-86
2024/01/07 09:23:39;;;;;;;14.93;6.78;;;;;;;4.58;79.39;99854.06;6090595;23;20021;-86
2024/01/07 09:26:06;;;;;;;16.52;7.07;;;;;;;4.61;79.00;99859.13;6092821;23;20053;-86
2024/01/07 09:28:34;;;;;;;12.48;5.55;;;;;;;4.64;78.05;99865.97;6115637;23;20037;-86
2024/01/07 09:31:04;;;;;;;9.75;5.05;;;;;;;4.66;75.59;99872.00;6090442;23;20101;-87
2024/01/07 09:33:31;;;;;;;13.32;5.95;;;;;;;4.64;74.70;99866.81;6091869;23;20025;-86
2024/01/07 09:35:58;;;;;;;13.75;5.90;;;;;;;4.54;74.62;99863.91;6115873;23;20014;-85
2024/01/07 09:38:41;;;;;;;14.03;5.80;;;;;;;4.55;75.70;99877.91;6093746;23;20105;-86
2024/01/07 09:41:08;;;;;;;13.55;6.00;;;;;;;4.49;74.38;99876.50;6062764;23;20417;-87
2024/01/07 09:43:35;;;;;;;19.40;8.15;;;;;;;4.44;74.22;99880.38;6045329;23;20077;-85
2024/01/07 09:46:05;;;;;;;12.10;4.85;;;;;;;4.46;72.95;99879.34;6061130;23;20034;-85
2024/01/07 09:48:32;;;;;;;11.95;5.47;;;;;;;4.30;73.52;99868.06;6061824;23;20028;-86
2024/01/07 09:51:00;;;;;;;12.98;6.05;;;;;;;4.37;74.05;99877.25;6063690;23;20022;-87
2024/01/07 09:53:30;;;;;;;13.38;6.15;;;;;;;4.39;73.93;99864.88;6037858;23;20026;-87
2024/01/07 09:56:18;;;;;;;12.60;5.88;;;;;;;4.25;73.14;99883.28;6067191;23;20026;-86
2024/01/07 09:58:47;;;;;;;12.52;6.57;;;;;;;4.50;74.69;99869.47;6085342;23;20394;-86
2024/01/07 10:01:18;;;;;;;15.02;6.05;;;;;;;4.45;73.27;99855.75;6038734;23;20042;-86
2024/01/07 10:03:46;;;;;;;25.90;9.27;;;;;;;4.31;70.67;99873.25;6061430;23;20085;-86
2024/01/07 10:06:13;;;;;;;11.57;5.28;;;;;;;4.24;70.36;99882.44;6066608;23;20015;-87
2024/01/07 10:08:40;;;;;;;10.75;5.35;;;;;;;4.42;71.91;99875.19;6061493;23;20761;-86
2024/01/07 10:11:09;;;;;;;9.63;4.82;;;;;;;4.50;71.77;99869.47;6087059;23;20029;-86
2024/01/07 10:13:36;;;;;;;9.50;5.55;;;;;;;4.42;70.96;99875.19;6091029;23;20040;-86
2024/01/07 10:16:05;;;;;;;13.90;6.30;;;;;;;4.37;71.84;99866.75;6066738;23;20034;-86
2024/01/07 10:18:34;;;;;;;10.00;4.88;;;;;;;4.42;72.77;99867.31;6089446;23;20026;-86
2024/01/07 10:21:06;;;;;;;14.68;6.28;;;;;;;4.44;72.37;99864.59;6066912;23;20025;-85
2024/01/07 10:23:35;;;;;;;17.52;6.95;;;;;;;4.39;73.13;99892.97;6067562;23;20021;-85
2024/01/07 10:26:02;;;;;;;14.75;6.28;;;;;;;4.51;73.54;99882.53;6066702;23;20022;-86
2024/01/07 10:28:45;;;;;;;11.80;5.20;;;;;;;4.45;73.12;99901.31;6046153;23;20014;-87
2024/01/07 10:31:13;;;;;;;13.32;6.22;;;;;;;4.51;73.35;99886.94;6089436;23;20097;-85
2024/01/07 10:33:42;;;;;;;12.38;6.68;;;;;;;4.55;73.35;99878.78;6068342;23;20521;-85
2024/01/07 10:36:09;;;;;;;11.20;5.47;;;;;;;4.54;72.76;99877.06;6066523;23;20328;-86
2024/01/07 10:38:36;;;;;;;12.95;5.95;;;;;;;4.52;72.40;99888.63;6065633;23;20093;-85
2024/01/07 10:41:09;;;;;;;14.32;5.65;;;;;;;4.45;71.61;99884.69;6066893;23;20533;-85
2024/01/07 10:43:36;;;;;;;10.05;5.28;;;;;;;4.45;71.71;99898.69;6089821;23;20032;-85
2024/01/07 10:46:04;;;;;;;13.80;5.57;;;;;;;4.39;71.41;99895.59;6101925;23;20025;-85
2024/01/07 10:48:36;;;;;;;9.77;5.07;;;;;;;4.29;70.88;99913.69;6114786;23;20020;-85
2024/01/07 10:51:04;;;;;;;12.75;5.75;;;;;;;4.21;72.67;99894.94;6085121;23;20019;-85
2024/01/07 10:53:34;;;;;;;14.07;5.50;;;;;;;4.25;71.20;99901.69;6088165;23;20029;-85
2024/01/07 10:56:05;;;;;;;13.30;6.10;;;;;;;4.30;71.76;99897.84;6067086;23;20361;-86
2024/01/07 10:58:34;;;;;;;11.40;5.72;;;;;;;4.22;71.21;99897.44;6090053;23;20028;-85
2024/01/07 11:01:06;;;;;;;12.15;5.35;;;;;;;4.31;71.99;99911.84;6114472;23;20047;-85
2024/01/07 11:03:41;;;;;;;14.40;6.95;;;;;;;4.29;71.65;99905.81;6090172;23;20021;-86
2024/01/07 11:06:14;;;;;;;12.85;4.97;;;;;;;4.25;71.41;99914.81;6113853;23;20037;-86
2024/01/07 11:08:56;;;;;;;15.23;6.13;;;;;;;4.21;71.35;99911.53;6090242;23;20029;-85
2024/01/07 11:11:26;;;;;;;13.75;6.30;;;;;;;4.18;71.95;99909.09;6102090;23;20093;-85
2024/01/07 11:13:52;;;;;;;15.05;5.95;;;;;;;4.23;72.08;99906.22;6090585;23;20445;-85
2024/01/07 11:16:41;;;;;;;12.45;6.30;;;;;;;4.15;72.70;99909.31;6114125;23;20026;-85
2024/01/07 11:19:08;;;;;;;13.55;6.78;;;;;;;4.17;72.24;99920.53;6090246;23;20434;-86
2024/01/07 11:21:37;;;;;;;14.15;6.22;;;;;;;4.13;72.07;99904.13;6114858;23;20441;-85
2024/01/07 11:24:04;;;;;;;15.10;7.05;;;;;;;3.99;72.51;99916.41;6089976;23;20388;-86
2024/01/07 11:26:31;;;;;;;13.90;6.68;;;;;;;3.91;71.78;99930.00;6090010;23;20030;-86
2024/01/07 11:28:58;;;;;;;14.45;6.03;;;;;;;3.93;72.15;99909.75;6089866;23;20053;-86
2024/01/07 11:31:39;;;;;;;15.35;7.35;;;;;;;3.82;71.85;99926.16;6089730;23;20362;-86